Time;durP1;ratioP1;P1;durP2;ratioP2;P2;SDS_P1;SDS_P2;PMS_P1;PMS_P2;Temp;Humidity;BMP_temperature;BMP_pressure;BME280_temperature;BME280_humidity;BME280_pressure;Samples;Min_cycle;Max_cycle;Signal;HPM_P1;HPM_P2
2023/04/29 00:01:51;;;;;;;35.42;19.02;;;11.10;99.90;;;;;;5038053;28;20025;-70
2023/04/29 00:04:16;;;;;;;32.53;16.55;;;11.10;99.90;;;;;;5048868;28;20080;-70
2023/04/29 00:06:42;;;;;;;31.58;15.15;;;11.00;99.90;;;;;;5042330;28;20065;-71
2023/04/29 00:09:07;;;;;;;28.40;15.35;;;11.00;99.90;;;;;;5041567;28;20029;-71
2023/04/29 00:11:33;;;;;;;29.90;15.80;;;11.00;99.90;;;;;;5049186;28;20095;-71
2023/04/29 00:13:58;;;;;;;28.77;13.73;;;11.00;99.90;;;;;;5037252;28;20064;-71
2023/04/29 00:16:24;;;;;;;26.40;14.75;;;11.10;99.90;;;;;;5047855;28;20037;-70
2023/04/29 00:18:50;;;;;;;29.20;15.25;;;11.00;99.90;;;;;;5043513;28;20033;-70
2023/04/29 00:21:16;;;;;;;31.38;15.32;;;11.00;99.90;;;;;;5038679;28;20038;-71
2023/04/29 00:23:41;;;;;;;31.45;15.90;;;11.00;99.90;;;;;;5049877;28;20461;-71
2023/04/29 00:26:07;;;;;;;29.48;14.45;;;11.00;99.90;;;;;;5036958;28;20067;-70
2023/04/29 00:28:32;;;;;;;26.77;14.05;;;11.00;99.90;;;;;;5048909;28;20477;-71
2023/04/29 00:30:58;;;;;;;28.77;14.80;;;11.00;99.90;;;;;;5051605;28;20040;-70
2023/04/29 00:33:24;;;;;;;29.80;15.35;;;11.00;99.90;;;;;;5039307;28;20061;-70
2023/04/29 00:35:50;;;;;;;28.33;14.25;;;11.00;99.90;;;;;;5049093;28;20037;-71
2023/04/29 00:38:16;;;;;;;28.90;16.27;;;11.00;99.90;;;;;;5038332;28;20029;-72
2023/04/29 00:40:47;;;;;;;28.70;15.20;;;11.00;99.90;;;;;;5043215;28;20646;-73
2023/04/29 00:43:12;;;;;;;27.67;15.40;;;11.00;99.90;;;;;;5032369;28;20026;-72
2023/04/29 00:45:38;;;;;;;29.27;14.48;;;11.00;99.90;;;;;;5033481;28;20029;-72
2023/04/29 00:48:04;;;;;;;30.60;15.52;;;11.00;99.90;;;;;;5043410;28;20370;-70
2023/04/29 00:50:29;;;;;;;28.30;14.10;;;11.00;99.90;;;;;;5033122;28;20128;-70
2023/04/29 00:52:55;;;;;;;29.23;15.18;;;11.00;99.90;;;;;;5033397;28;20104;-71
2023/04/29 00:55:23;;;;;;;29.95;16.20;;;11.00;99.90;;;;;;5033178;28;20068;-72
2023/04/29 00:57:51;;;;;;;25.63;13.07;;;11.10;99.90;;;;;;5022281;28;20080;-72
2023/04/29 01:00:17;;;;;;;24.90;13.35;;;11.10;99.90;;;;;;5032393;28;20029;-71
2023/04/29 01:02:45;;;;;;;28.40;13.35;;;11.00;99.90;;;;;;5032705;28;20056;-71
2023/04/29 01:05:10;;;;;;;25.40;12.18;;;11.00;99.90;;;;;;5032963;28;20033;-71
2023/04/29 01:08:11;;;;;;;24.77;12.13;;;11.00;99.90;;;;;;5030698;28;20050;-72
2023/04/29 01:11:00;;;;;;;22.73;10.48;;;11.00;99.90;;;;;;5032043;28;20056;-70
2023/04/29 01:13:29;;;;;;;21.08;10.43;;;11.00;99.90;;;;;;5033027;28;20091;-70
2023/04/29 01:16:03;;;;;;;23.63;10.32;;;11.00;99.90;;;;;;5032621;28;20063;-70
2023/04/29 01:18:40;;;;;;;22.45;9.90;;;10.90;99.90;;;;;;5032795;28;20139;-71
2023/04/29 01:21:05;;;;;;;24.55;11.55;;;10.90;99.90;;;;;;5030952;28;20037;-71
2023/04/29 01:23:31;;;;;;;28.05;13.30;;;10.90;99.90;;;;;;5031746;28;20028;-70
2023/04/29 01:25:57;;;;;;;24.25;12.60;;;10.90;99.90;;;;;;5032789;28;20079;-71
2023/04/29 01:28:29;;;;;;;25.80;13.48;;;10.90;99.90;;;;;;5032535;28;20497;-71
2023/04/29 01:31:17;;;;;;;28.60;13.07;;;10.80;99.90;;;;;;5031915;28;20072;-71
2023/04/29 01:33:45;;;;;;;28.23;12.90;;;10.90;99.90;;;;;;5032246;28;20029;-70
2023/04/29 01:36:26;;;;;;;24.23;12.20;;;10.80;99.90;;;;;;5032443;28;20030;-71
2023/04/29 01:39:10;;;;;;;27.00;12.48;;;10.90;99.90;;;;;;5032159;28;20462;-70
2023/04/29 01:41:51;;;;;;;27.27;13.95;;;10.90;99.90;;;;;;5032177;28;20034;-71
2023/04/29 01:44:23;;;;;;;27.08;13.02;;;10.90;99.90;;;;;;5032603;28;20055;-71
2023/04/29 01:46:51;;;;;;;28.80;14.10;;;10.90;99.90;;;;;;5032321;28;20026;-70
2023/04/29 01:49:36;;;;;;;25.88;13.05;;;10.90;99.90;;;;;;5031670;28;20047;-72
2023/04/29 01:52:02;;;;;;;28.50;12.50;;;10.90;99.90;;;;;;5031515;28;20042;-70
2023/04/29 01:54:27;;;;;;;25.65;12.95;;;10.90;99.90;;;;;;5031974;28;20032;-71
2023/04/29 01:56:53;;;;;;;23.02;12.13;;;10.90;99.90;;;;;;5031911;28;20079;-72
2023/04/29 01:59:20;;;;;;;24.35;12.27;;;10.90;99.90;;;;;;5032052;28;20022;-71
2023/04/29 02:01:46;;;;;;;23.55;12.10;;;10.90;99.90;;;;;;5031971;28;20036;-71
2023/04/29 02:04:11;;;;;;;23.38;11.77;;;10.90;99.90;;;;;;5032019;28;20033;-71
2023/04/29 02:06:37;;;;;;;22.65;12.32;;;10.90;99.90;;;;;;5032039;28;20018;-70
2023/04/29 02:09:03;;;;;;;24.67;10.93;;;10.90;99.90;;;;;;5031809;28;20363;-70
2023/04/29 02:11:28;;;;;;;22.45;11.85;;;10.90;99.90;;;;;;5031929;28;20083;-69
2023/04/29 02:13:54;;;;;;;26.55;11.82;;;10.90;99.90;;;;;;5031736;28;20061;-69
2023/04/29 02:16:20;;;;;;;30.65;12.52;;;10.90;99.90;;;;;;5031606;28;20042;-69
2023/04/29 02:18:45;;;;;;;26.27;12.93;;;10.90;99.90;;;;;;5031851;28;20033;-72
2023/04/29 02:21:11;;;;;;;23.83;11.80;;;10.90;99.90;;;;;;5032063;28;20057;-70
2023/04/29 02:23:36;;;;;;;23.42;11.80;;;10.90;99.90;;;;;;5032043;28;20092;-72
2023/04/29 02:26:05;;;;;;;26.13;12.00;;;10.90;99.90;;;;;;5031821;28;20143;-71
2023/04/29 02:28:31;;;;;;;24.65;12.90;;;10.90;99.90;;;;;;5032095;28;20053;-70
2023/04/29 02:30:56;;;;;;;27.60;12.50;;;10.90;99.90;;;;;;5031562;28;20155;-71
2023/04/29 02:33:22;;;;;;;25.33;12.63;;;10.90;99.90;;;;;;5031925;28;20116;-70
2023/04/29 02:35:48;;;;;;;26.48;12.52;;;10.90;99.90;;;;;;5031828;28;20032;-71
2023/04/29 02:38:13;;;;;;;27.10;12.00;;;10.90;99.90;;;;;;5031912;28;20021;-71
2023/04/29 02:40:45;;;;;;;24.92;12.02;;;11.00;99.90;;;;;;5031385;28;20037;-70
2023/04/29 02:43:11;;;;;;;24.70;12.48;;;11.00;99.90;;;;;;5031634;28;20084;-70
2023/04/29 02:45:37;;;;;;;24.40;12.27;;;11.00;99.90;;;;;;5031597;28;20026;-72
2023/04/29 02:48:04;;;;;;;21.88;10.80;;;11.00;99.90;;;;;;5031863;28;20116;-71
2023/04/29 02:50:29;;;;;;;28.52;12.30;;;11.10;99.90;;;;;;5030282;28;20060;-71
2023/04/29 02:52:55;;;;;;;23.77;11.82;;;11.10;99.90;;;;;;5035417;28;20029;-71
2023/04/29 02:55:20;;;;;;;23.42;11.05;;;11.10;99.90;;;;;;5035365;28;20044;-70
2023/04/29 02:57:46;;;;;;;27.67;11.02;;;11.10;99.90;;;;;;5035289;28;20495;-71
2023/04/29 03:00:12;;;;;;;25.40;11.43;;;11.10;99.90;;;;;;5035324;28;20464;-71
2023/04/29 03:02:38;;;;;;;26.52;12.60;;;11.10;99.90;;;;;;5035530;28;20033;-70
2023/04/29 03:05:04;;;;;;;29.77;13.38;;;11.10;99.90;;;;;;5035427;28;20053;-71
2023/04/29 03:07:30;;;;;;;32.05;13.73;;;11.10;99.90;;;;;;5034331;28;20072;-70
2023/04/29 03:09:56;;;;;;;30.60;14.77;;;11.10;99.90;;;;;;5035090;28;20025;-70
2023/04/29 03:12:22;;;;;;;35.58;14.93;;;11.10;99.90;;;;;;5035302;28;20030;-69
2023/04/29 03:14:47;;;;;;;32.40;15.57;;;11.00;99.90;;;;;;5034974;28;20034;-69
2023/04/29 03:17:14;;;;;;;32.70;15.27;;;11.10;99.90;;;;;;5035268;28;20032;-71
2023/04/29 03:19:39;;;;;;;32.17;15.95;;;11.10;99.90;;;;;;5035278;28;20017;-71
2023/04/29 03:22:07;;;;;;;31.02;14.65;;;11.10;99.90;;;;;;5035050;28;20424;-70
2023/04/29 03:24:32;;;;;;;31.27;14.95;;;11.10;99.90;;;;;;5034707;28;20030;-70
2023/04/29 03:26:59;;;;;;;33.42;16.15;;;11.10;99.90;;;;;;5034776;28;20103;-71
2023/04/29 03:29:26;;;;;;;32.80;15.80;;;11.10;99.90;;;;;;5034799;28;20041;-71
2023/04/29 03:31:52;;;;;;;30.70;15.30;;;11.10;99.90;;;;;;5034815;28;20040;-72
2023/04/29 03:34:18;;;;;;;34.33;15.15;;;11.10;99.90;;;;;;5034838;28;20061;-72
2023/04/29 03:36:43;;;;;;;32.30;16.80;;;11.10;99.90;;;;;;5034833;28;20061;-71
2023/04/29 03:39:10;;;;;;;33.72;16.95;;;11.10;99.90;;;;;;5034795;28;20029;-72
2023/04/29 03:41:36;;;;;;;30.25;14.70;;;11.00;99.90;;;;;;5034609;28;20053;-72
2023/04/29 03:44:01;;;;;;;32.05;15.27;;;11.00;99.90;;;;;;5034349;28;20084;-72
2023/04/29 03:46:27;;;;;;;33.13;15.32;;;11.00;99.90;;;;;;5035996;28;20484;-71
2023/04/29 03:48:54;;;;;;;32.05;14.82;;;11.00;99.90;;;;;;5044813;28;20103;-72
2023/04/29 03:51:21;;;;;;;29.40;14.48;;;11.00;99.90;;;;;;5034507;28;20620;-72
2023/04/29 03:53:47;;;;;;;34.05;14.55;;;11.00;99.90;;;;;;5034442;28;20075;-71
2023/04/29 03:56:13;;;;;;;39.15;15.20;;;11.00;99.90;;;;;;5034113;28;20104;-72
2023/04/29 03:58:38;;;;;;;29.23;13.13;;;11.00;99.90;;;;;;5034334;28;20408;-71
2023/04/29 04:01:04;;;;;;;32.75;15.02;;;11.00;99.90;;;;;;5034025;28;20041;-73
2023/04/29 04:03:29;;;;;;;30.95;16.10;;;10.90;99.90;;;;;;5033155;28;20104;-72
2023/04/29 04:05:55;;;;;;;31.67;15.02;;;10.90;99.90;;;;;;5033978;28;20526;-72
2023/04/29 04:08:21;;;;;;;30.77;15.25;;;10.90;99.90;;;;;;5034553;28;20049;-71
2023/04/29 04:10:46;;;;;;;32.67;15.20;;;10.80;99.90;;;;;;5033854;28;20065;-73
2023/04/29 04:13:13;;;;;;;32.13;14.73;;;10.80;99.90;;;;;;5033833;28;20057;-72
2023/04/29 04:15:39;;;;;;;28.92;15.13;;;10.80;99.90;;;;;;5034310;28;20079;-72
2023/04/29 04:18:04;;;;;;;32.05;14.98;;;10.80;99.90;;;;;;5033983;28;20034;-71
2023/04/29 04:20:30;;;;;;;31.08;14.30;;;10.80;99.90;;;;;;5034094;28;20045;-72
2023/04/29 04:22:56;;;;;;;29.80;14.52;;;10.80;99.90;;;;;;5032840;28;20373;-71
2023/04/29 04:25:21;;;;;;;32.53;15.15;;;10.70;99.90;;;;;;5033617;28;20599;-72
2023/04/29 04:27:47;;;;;;;30.02;13.57;;;10.70;99.90;;;;;;5033808;28;20796;-72
2023/04/29 04:30:12;;;;;;;25.23;12.73;;;10.70;99.90;;;;;;5033548;28;20079;-72
2023/04/29 04:32:38;;;;;;;27.70;12.93;;;10.70;99.90;;;;;;5032748;28;20488;-71
2023/04/29 04:35:05;;;;;;;30.92;14.93;;;10.70;99.90;;;;;;5031649;28;20037;-71
2023/04/29 04:37:31;;;;;;;30.98;14.40;;;10.70;99.90;;;;;;5023491;28;20036;-71
2023/04/29 04:39:57;;;;;;;29.60;14.40;;;10.70;99.90;;;;;;5033374;28;20021;-70
2023/04/29 04:42:22;;;;;;;29.40;15.23;;;10.70;99.90;;;;;;5033576;28;20030;-71
2023/04/29 04:44:48;;;;;;;32.00;14.32;;;10.70;99.90;;;;;;5033013;28;20025;-70
2023/04/29 04:47:13;;;;;;;26.88;12.80;;;10.70;99.90;;;;;;5033529;28;20063;-70
2023/04/29 04:49:39;;;;;;;27.80;13.20;;;10.70;99.90;;;;;;5033185;28;20068;-70
2023/04/29 04:52:05;;;;;;;30.70;15.07;;;10.70;99.90;;;;;;5022381;28;20058;-70
2023/04/29 04:54:30;;;;;;;33.75;14.38;;;10.70;99.90;;;;;;5028089;28;20046;-71
2023/04/29 04:56:56;;;;;;;30.10;14.55;;;10.70;99.90;;;;;;5029918;28;20041;-71
2023/04/29 04:59:21;;;;;;;30.73;13.60;;;10.70;99.90;;;;;;5031080;28;20025;-70
2023/04/29 05:01:47;;;;;;;31.33;14.55;;;10.70;99.90;;;;;;5028704;28;20115;-70
2023/04/29 05:04:14;;;;;;;31.73;14.90;;;10.80;99.90;;;;;;5025928;28;20026;-71
2023/04/29 05:06:39;;;;;;;29.73;13.82;;;10.80;99.90;;;;;;5031124;28;20108;-70
2023/04/29 05:09:05;;;;;;;31.58;14.93;;;10.80;99.90;;;;;;5030270;28;20113;-71
2023/04/29 05:11:31;;;;;;;31.50;14.38;;;10.70;99.90;;;;;;5028477;28;20046;-70
2023/04/29 05:13:56;;;;;;;27.35;13.35;;;10.70;99.90;;;;;;5030633;28;20063;-71
2023/04/29 05:16:22;;;;;;;27.48;12.23;;;10.70;99.90;;;;;;5030837;28;20029;-71
2023/04/29 05:18:47;;;;;;;28.30;12.80;;;10.70;99.90;;;;;;5031262;28;20021;-71
2023/04/29 05:21:13;;;;;;;28.60;13.27;;;10.70;99.90;;;;;;5031135;28;20021;-71
2023/04/29 05:23:39;;;;;;;28.77;13.52;;;10.60;99.90;;;;;;5028422;28;20363;-72
2023/04/29 05:26:04;;;;;;;32.28;13.80;;;10.60;99.90;;;;;;5029642;28;20021;-71
2023/04/29 05:28:30;;;;;;;28.40;12.95;;;10.70;99.90;;;;;;5029282;28;20465;-72
2023/04/29 05:30:56;;;;;;;28.83;12.80;;;10.70;99.90;;;;;;5030493;28;20045;-71
2023/04/29 05:33:21;;;;;;;24.88;11.57;;;10.70;99.90;;;;;;5030517;28;20113;-71
2023/04/29 05:35:47;;;;;;;28.27;13.23;;;10.70;99.90;;;;;;5030252;28;20052;-71
2023/04/29 05:38:14;;;;;;;22.67;10.13;;;10.80;99.90;;;;;;5031144;28;20127;-72
2023/04/29 05:40:40;;;;;;;24.60;10.88;;;10.80;99.90;;;;;;5030505;28;20477;-70
2023/04/29 05:43:06;;;;;;;27.67;12.45;;;10.80;99.90;;;;;;5030416;28;20945;-71
2023/04/29 05:45:31;;;;;;;26.42;10.73;;;10.80;99.90;;;;;;5030744;28;20055;-70
2023/04/29 05:47:57;;;;;;;22.23;10.00;;;10.90;99.90;;;;;;5030353;28;20033;-70
2023/04/29 05:50:22;;;;;;;25.80;11.07;;;10.90;99.90;;;;;;5029161;28;20041;-71
2023/04/29 05:52:48;;;;;;;24.35;9.98;;;11.00;99.90;;;;;;5029980;28;20184;-71
2023/04/29 05:55:14;;;;;;;22.85;9.50;;;11.00;99.90;;;;;;5030001;28;20022;-70
2023/04/29 05:57:40;;;;;;;22.13;10.30;;;11.10;99.90;;;;;;5030037;28;20104;-71
2023/04/29 06:00:06;;;;;;;22.02;10.77;;;11.20;99.90;;;;;;5030379;28;20377;-71
2023/04/29 06:02:32;;;;;;;25.45;9.60;;;11.20;99.90;;;;;;5031089;28;20556;-71
2023/04/29 06:04:58;;;;;;;23.80;11.98;;;11.30;99.90;;;;;;5031630;28;20037;-71
2023/04/29 06:07:24;;;;;;;25.38;10.20;;;11.40;99.90;;;;;;5031481;28;20033;-72
2023/04/29 06:09:49;;;;;;;27.95;11.52;;;11.40;99.90;;;;;;5031619;28;20175;-72
2023/04/29 06:12:15;;;;;;;24.50;9.60;;;11.60;99.90;;;;;;5031213;28;20041;-72
2023/04/29 06:14:41;;;;;;;23.25;9.88;;;11.70;99.90;;;;;;5031761;28;20022;-71
2023/04/29 06:17:06;;;;;;;20.80;9.38;;;11.80;99.90;;;;;;5031401;28;20510;-72
2023/04/29 06:19:32;;;;;;;23.70;10.13;;;11.90;99.90;;;;;;5031475;28;20036;-71
2023/04/29 06:21:58;;;;;;;23.48;10.07;;;12.10;99.90;;;;;;5031761;28;20048;-72
2023/04/29 06:24:24;;;;;;;21.17;9.65;;;12.30;99.90;;;;;;5031527;28;20112;-71
2023/04/29 06:26:50;;;;;;;25.45;10.68;;;12.60;99.90;;;;;;5032952;28;20095;-70
2023/04/29 06:29:15;;;;;;;20.65;8.45;;;13.10;99.90;;;;;;5035526;28;20025;-71
2023/04/29 06:31:41;;;;;;;17.05;8.13;;;13.80;99.90;;;;;;5035449;28;20033;-71
2023/04/29 06:34:07;;;;;;;17.75;7.90;;;14.50;99.90;;;;;;5035199;28;20744;-71
2023/04/29 06:36:33;;;;;;;17.83;8.02;;;15.20;99.90;;;;;;5034365;28;20040;-73
2023/04/29 06:38:58;;;;;;;17.88;7.82;;;16.00;99.90;;;;;;5034600;28;20421;-71
2023/04/29 06:41:24;;;;;;;17.05;7.75;;;16.90;99.90;;;;;;5034565;28;20079;-71
2023/04/29 06:43:50;;;;;;;16.25;7.00;;;17.70;99.90;;;;;;5035055;28;20150;-73
2023/04/29 06:46:16;;;;;;;14.05;6.18;;;18.50;99.90;;;;;;5035527;28;20026;-71
2023/04/29 06:48:41;;;;;;;17.90;6.63;;;18.90;98.50;;;;;;5035055;28;20052;-72
2023/04/29 06:51:07;;;;;;;13.70;6.28;;;19.10;98.20;;;;;;5035557;28;20484;-70
2023/04/29 06:53:33;;;;;;;14.10;6.15;;;19.60;97.40;;;;;;5035202;28;20057;-71
2023/04/29 06:55:58;;;;;;;21.15;8.02;;;19.80;97.10;;;;;;5033788;28;20030;-70
2023/04/29 06:58:24;;;;;;;19.52;8.40;;;20.00;96.30;;;;;;5034434;28;20053;-70
2023/04/29 07:00:50;;;;;;;15.00;6.88;;;20.20;96.00;;;;;;5034656;28;20416;-70
2023/04/29 07:03:17;;;;;;;14.27;6.60;;;20.10;95.30;;;;;;5035127;28;20462;-72
2023/04/29 07:05:44;;;;;;;14.20;6.93;;;19.70;95.70;;;;;;5035099;28;20025;-71
2023/04/29 07:08:10;;;;;;;16.80;7.68;;;19.90;95.70;;;;;;5034607;28;20033;-71
2023/04/29 07:10:36;;;;;;;16.10;7.55;;;20.20;95.30;;;;;;5033170;28;20056;-71
2023/04/29 07:13:02;;;;;;;17.83;8.00;;;20.30;94.90;;;;;;5034319;28;20421;-71
2023/04/29 07:15:28;;;;;;;11.75;5.90;;;20.30;94.60;;;;;;5035220;28;20030;-72
2023/04/29 07:17:54;;;;;;;13.10;6.35;;;19.70;94.60;;;;;;5034923;28;20036;-73
2023/04/29 07:20:20;;;;;;;14.98;6.38;;;19.10;95.50;;;;;;5034753;28;20030;-70
2023/04/29 07:22:46;;;;;;;18.83;6.95;;;18.70;96.10;;;;;;5034542;28;20577;-71
2023/04/29 07:25:11;;;;;;;12.82;6.25;;;18.30;96.70;;;;;;5034213;28;20124;-70
2023/04/29 07:27:37;;;;;;;17.38;7.88;;;17.80;96.60;;;;;;5034353;28;20095;-71
2023/04/29 07:30:04;;;;;;;17.40;7.03;;;17.50;97.10;;;;;;5034627;28;20059;-71
2023/04/29 07:32:32;;;;;;;15.43;6.80;;;17.10;97.60;;;;;;5032689;28;20415;-72
2023/04/29 07:34:58;;;;;;;17.65;7.75;;;16.80;98.10;;;;;;5034332;28;20104;-71
2023/04/29 07:37:24;;;;;;;16.23;6.50;;;16.50;98.40;;;;;;5034375;28;20112;-70
2023/04/29 07:39:50;;;;;;;16.48;7.57;;;16.40;98.60;;;;;;5034635;28;20025;-71
2023/04/29 07:42:15;;;;;;;18.48;8.55;;;16.30;98.70;;;;;;5033483;28;20026;-71
2023/04/29 07:44:41;;;;;;;12.82;6.18;;;16.40;99.30;;;;;;5032692;28;20037;-71
2023/04/29 07:47:07;;;;;;;12.65;6.32;;;16.50;98.70;;;;;;5032063;28;20409;-71
2023/04/29 07:49:32;;;;;;;14.88;7.53;;;16.80;98.10;;;;;;5034010;28;20029;-71
2023/04/29 07:51:58;;;;;;;16.73;6.53;;;17.00;97.40;;;;;;5034291;28;20045;-72
2023/04/29 07:54:24;;;;;;;9.57;5.25;;;17.30;97.20;;;;;;5033561;28;20754;-71
2023/04/29 07:56:49;;;;;;;16.70;8.18;;;17.60;96.50;;;;;;5033704;28;20045;-71
2023/04/29 07:59:15;;;;;;;15.65;7.97;;;17.80;96.70;;;;;;5034094;28;20068;-72
2023/04/29 08:01:41;;;;;;;13.02;4.63;;;18.30;96.60;;;;;;5031598;28;20120;-72
2023/04/29 08:04:07;;;;;;;12.25;5.75;;;18.80;94.70;;;;;;5033090;28;20072;-71
2023/04/29 08:06:33;;;;;;;16.98;7.97;;;19.10;94.90;;;;;;5034470;28;20053;-71
2023/04/29 08:08:59;;;;;;;12.20;6.22;;;19.80;94.30;;;;;;5034189;28;20018;-73
2023/04/29 08:11:26;;;;;;;12.57;6.50;;;20.60;93.40;;;;;;5033816;28;20044;-72
2023/04/29 08:13:52;;;;;;;12.18;5.13;;;21.50;92.30;;;;;;5033826;28;20033;-71
2023/04/29 08:16:18;;;;;;;10.77;3.88;;;22.60;91.60;;;;;;5036472;28;20025;-72
2023/04/29 08:18:43;;;;;;;12.38;5.30;;;23.40;90.00;;;;;;5043712;28;20101;-72
2023/04/29 08:21:11;;;;;;;14.85;6.25;;;23.90;89.60;;;;;;5033929;28;20029;-73
2023/04/29 08:23:37;;;;;;;13.45;5.68;;;25.00;89.40;;;;;;5033514;28;20021;-72
2023/04/29 08:26:04;;;;;;;10.88;5.35;;;26.10;86.60;;;;;;5033897;28;20112;-71
2023/04/29 08:28:30;;;;;;;14.38;5.43;;;27.10;81.70;;;;;;5033945;28;20242;-70
2023/04/29 08:30:55;;;;;;;13.05;4.50;;;27.40;81.50;;;;;;5033727;28;20141;-72
2023/04/29 08:33:21;;;;;;;7.70;4.32;;;28.30;80.00;;;;;;5033808;28;20385;-71
2023/04/29 08:35:47;;;;;;;10.23;4.88;;;29.10;77.70;;;;;;5051604;28;20025;-72
2023/04/29 08:38:13;;;;;;;13.15;5.03;;;29.70;76.00;;;;;;5053257;28;20037;-72
2023/04/29 08:40:44;;;;;;;12.20;4.68;;;30.20;73.40;;;;;;5053684;28;20362;-71
2023/04/29 08:43:11;;;;;;;;;;;30.70;72.10;;;;;;5053421;28;20071;-71
2023/04/29 08:45:38;;;;;;;12.65;4.97;;;31.40;70.10;;;;;;5052042;28;19976;-72
2023/04/29 08:48:06;;;;;;;10.55;4.78;;;31.50;69.10;;;;;;5053006;28;20021;-71
2023/04/29 08:50:42;;;;;;;11.82;5.05;;;31.30;68.30;;;;;;5052403;28;20148;-71
2023/04/29 08:53:09;;;;;;;12.65;4.97;;;31.50;68.40;;;;;;5053026;28;20132;-72
2023/04/29 08:55:41;;;;;;;13.90;5.22;;;31.70;67.50;;;;;;5048320;28;20033;-71
2023/04/29 08:58:07;;;;;;;11.93;4.38;;;31.20;66.70;;;;;;5046125;28;20029;-71
2023/04/29 09:00:34;;;;;;;13.70;5.47;;;30.90;66.20;;;;;;5036420;28;20033;-70
2023/04/29 09:03:03;;;;;;;9.13;4.07;;;30.80;66.40;;;;;;5033325;28;20433;-70
2023/04/29 09:05:32;;;;;;;11.73;5.05;;;30.80;66.60;;;;;;5033176;28;20040;-72
2023/04/29 09:07:58;;;;;;;7.32;4.13;;;30.60;65.40;;;;;;5032939;28;20027;-70
2023/04/29 09:10:25;;;;;;;11.30;5.20;;;30.30;66.90;;;;;;5033169;28;20092;-72
2023/04/29 09:12:58;;;;;;;9.18;5.13;;;30.50;65.10;;;;;;5033341;28;20029;-72
2023/04/29 09:15:24;;;;;;;9.48;5.18;;;30.60;63.80;;;;;;5032508;28;20512;-71
2023/04/29 09:17:49;;;;;;;11.48;4.90;;;30.10;63.90;;;;;;5032895;28;20061;-71
2023/04/29 09:20:21;;;;;;;9.20;5.35;;;29.70;64.40;;;;;;5033267;28;20068;-71
2023/04/29 09:22:52;;;;;;;11.85;6.03;;;29.20;64.60;;;;;;5032952;28;20038;-71
2023/04/29 09:25:18;;;;;;;11.57;5.22;;;28.80;65.10;;;;;;5029860;28;20063;-71
2023/04/29 09:27:44;;;;;;;8.63;4.45;;;28.50;65.30;;;;;;5032053;28;20144;-71
2023/04/29 09:30:11;;;;;;;9.63;5.28;;;28.50;64.80;;;;;;5048361;28;20064;-70
2023/04/29 09:32:37;;;;;;;8.18;5.20;;;28.30;64.90;;;;;;5051751;28;20032;-70
2023/04/29 09:35:26;;;;;;;15.20;5.55;;;28.30;65.40;;;;;;5032603;28;20033;-70
2023/04/29 09:37:53;;;;;;;11.55;5.53;;;28.40;64.90;;;;;;5032247;28;20056;-71
2023/04/29 09:40:33;;;;;;;12.18;6.82;;;28.70;64.60;;;;;;5032493;28;20021;-70
2023/04/29 09:42:59;;;;;;;11.35;6.32;;;29.00;65.40;;;;;;5034283;28;20025;-71
2023/04/29 09:45:35;;;;;;;9.70;5.90;;;29.60;63.30;;;;;;5032361;28;20022;-70
2023/04/29 09:48:05;;;;;;;14.52;6.28;;;29.90;62.60;;;;;;5032586;28;20028;-71
2023/04/29 09:50:38;;;;;;;12.23;5.53;;;30.30;62.90;;;;;;5033194;28;20053;-70
2023/04/29 09:53:08;;;;;;;9.23;6.20;;;30.40;62.10;;;;;;5031463;28;20034;-71
2023/04/29 09:55:53;;;;;;;9.95;5.65;;;30.10;61.60;;;;;;5017471;28;20101;-70
2023/04/29 09:58:32;;;;;;;9.35;5.15;;;30.10;62.50;;;;;;5018174;28;20037;-71
2023/04/29 10:01:02;;;;;;;11.35;6.15;;;30.70;61.90;;;;;;5027310;28;20034;-71
2023/04/29 10:03:33;;;;;;;13.02;6.15;;;30.90;62.30;;;;;;5031836;28;20037;-72
2023/04/29 10:06:00;;;;;;;11.68;6.40;;;31.00;61.10;;;;;;5031124;28;20474;-70
2023/04/29 10:08:27;;;;;;;10.82;6.05;;;31.50;60.70;;;;;;5031741;28;20033;-70
2023/04/29 10:10:57;;;;;;;9.38;5.32;;;31.80;60.30;;;;;;5031849;28;20045;-72
2023/04/29 10:13:25;;;;;;;9.23;5.78;;;31.90;58.90;;;;;;5031724;28;20033;-71
2023/04/29 10:15:57;;;;;;;10.93;5.95;;;31.60;59.00;;;;;;5031603;28;20034;-72
2023/04/29 10:18:28;;;;;;;;;;;31.30;60.30;;;;;;5012750;28;20113;-70
2023/04/29 10:20:58;;;;;;;10.63;5.80;;;31.20;59.60;;;;;;5011202;28;20365;-70
2023/04/29 10:23:25;;;;;;;10.27;5.93;;;30.90;59.80;;;;;;5021321;28;20029;-73
2023/04/29 10:25:51;;;;;;;11.70;5.63;;;31.00;59.90;;;;;;5030102;28;20104;-74
2023/04/29 10:28:18;;;;;;;9.95;5.05;;;31.00;59.50;;;;;;5030458;28;20370;-71
2023/04/29 10:30:49;;;;;;;9.38;5.00;;;31.10;59.10;;;;;;5030716;28;20052;-74
2023/04/29 10:33:16;;;;;;;10.18;5.35;;;31.10;58.90;;;;;;5034852;28;20386;-72
2023/04/29 10:35:44;;;;;;;9.80;4.90;;;31.40;59.40;;;;;;5031562;28;20462;-72
2023/04/29 10:38:22;;;;;;;11.48;5.80;;;31.70;58.20;;;;;;5032041;28;20032;-72
2023/04/29 10:40:51;;;;;;;11.95;5.70;;;31.60;59.00;;;;;;5030797;28;20037;-71
2023/04/29 10:43:23;;;;;;;12.52;6.15;;;31.70;58.60;;;;;;5031230;28;20381;-71
2023/04/29 10:45:48;;;;;;;12.23;6.22;;;31.90;59.10;;;;;;5030588;28;20029;-71
2023/04/29 10:48:15;;;;;;;11.10;6.20;;;32.10;58.10;;;;;;5029320;28;20037;-73
2023/04/29 10:50:46;;;;;;;10.68;6.05;;;31.80;58.50;;;;;;5025845;28;20038;-71
2023/04/29 10:53:18;;;;;;;9.63;5.05;;;31.70;58.00;;;;;;5047628;28;20025;-71
2023/04/29 10:55:47;;;;;;;10.73;4.78;;;31.90;57.30;;;;;;5024534;28;20029;-71
2023/04/29 10:58:44;;;;;;;10.27;5.72;;;32.20;57.50;;;;;;5011092;28;20425;-71
2023/04/29 11:01:15;;;;;;;12.57;5.25;;;32.50;57.40;;;;;;5017303;28;20055;-71
2023/04/29 11:03:45;;;;;;;7.90;5.22;;;32.60;56.80;;;;;;5031645;28;20025;-73
2023/04/29 11:06:10;;;;;;;7.45;4.47;;;32.50;57.20;;;;;;5031444;28;20025;-72
2023/04/29 11:08:38;;;;;;;8.00;4.80;;;32.70;56.30;;;;;;5031654;28;20024;-70
2023/04/29 11:11:08;;;;;;;8.23;4.72;;;33.10;56.20;;;;;;5029500;28;20095;-70
2023/04/29 11:13:38;;;;;;;7.00;4.25;;;33.40;55.10;;;;;;5033010;28;20059;-70
2023/04/29 11:16:08;;;;;;;9.52;5.75;;;33.50;54.80;;;;;;5023922;28;20120;-71
2023/04/29 11:18:36;;;;;;;14.73;4.65;;;33.30;55.40;;;;;;5035086;28;20104;-72
2023/04/29 11:21:04;;;;;;;12.23;4.30;;;33.20;57.10;;;;;;5034620;28;20457;-76
2023/04/29 11:23:33;;;;;;;12.77;4.85;;;33.30;57.10;;;;;;5035032;28;20094;-74
2023/04/29 11:25:59;;;;;;;9.45;4.57;;;33.30;57.10;;;;;;5033964;28;20056;-71
2023/04/29 11:28:26;;;;;;;12.88;5.43;;;33.40;56.30;;;;;;5014957;28;20054;-71
2023/04/29 11:30:53;;;;;;;10.65;4.70;;;33.30;57.10;;;;;;5018970;28;20052;-72
2023/04/29 11:33:22;;;;;;;11.40;5.25;;;33.20;57.10;;;;;;5034651;28;20025;-73
2023/04/29 11:35:48;;;;;;;12.38;5.03;;;33.20;57.20;;;;;;5035178;28;20036;-71
2023/04/29 11:38:13;;;;;;;12.55;5.35;;;33.20;57.30;;;;;;5034669;28;20026;-73
2023/04/29 11:40:49;;;;;;;13.65;5.78;;;33.20;57.00;;;;;;5035158;28;20033;-71
2023/04/29 11:43:18;;;;;;;12.05;5.43;;;33.30;57.00;;;;;;5028965;28;20034;-71
2023/04/29 11:45:45;;;;;;;9.95;4.90;;;33.30;57.10;;;;;;5033744;28;20515;-71
2023/04/29 11:48:20;;;;;;;14.95;4.40;;;33.40;56.80;;;;;;5032801;28;20489;-72
2023/04/29 11:50:49;;;;;;;8.02;4.22;;;33.40;56.70;;;;;;5034401;28;20041;-71
2023/04/29 11:53:15;;;;;;;14.15;5.55;;;33.30;57.00;;;;;;5034336;28;20112;-71
2023/04/29 11:55:47;;;;;;;12.18;4.50;;;33.20;57.00;;;;;;5032858;28;20567;-71
2023/04/29 11:58:16;;;;;;;11.18;4.72;;;33.30;57.20;;;;;;5034467;28;20103;-73
2023/04/29 12:00:43;;;;;;;11.27;4.47;;;33.10;56.60;;;;;;5033795;28;20036;-71
2023/04/29 12:03:17;;;;;;;10.43;4.45;;;32.50;57.00;;;;;;5034125;28;20441;-73
2023/04/29 12:05:53;;;;;;;13.95;5.10;;;32.10;57.40;;;;;;5034038;28;20079;-71
2023/04/29 12:08:23;;;;;;;11.10;4.88;;;32.10;57.70;;;;;;5034380;28;20061;-71
2023/04/29 12:10:49;;;;;;;11.63;5.15;;;32.00;57.00;;;;;;5033861;28;20080;-72
2023/04/29 12:13:16;;;;;;;9.40;4.60;;;31.90;56.80;;;;;;5033508;28;20355;-70
2023/04/29 12:15:43;;;;;;;12.55;5.05;;;31.90;57.00;;;;;;5033708;28;20039;-71
2023/04/29 12:18:08;;;;;;;12.50;4.80;;;31.80;57.30;;;;;;5033938;28;20068;-71
2023/04/29 12:20:34;;;;;;;9.40;4.50;;;31.90;57.50;;;;;;5033607;28;20057;-71
2023/04/29 12:23:15;;;;;;;8.90;4.55;;;32.10;57.00;;;;;;5032485;28;20029;-74
2023/04/29 12:25:41;;;;;;;10.20;4.28;;;32.10;56.80;;;;;;5031435;28;20112;-74
2023/04/29 12:28:13;;;;;;;12.35;4.95;;;32.20;57.00;;;;;;5033182;28;20141;-71
2023/04/29 12:30:39;;;;;;;12.38;4.75;;;32.30;56.70;;;;;;5031771;28;20087;-71
2023/04/29 12:33:09;;;;;;;12.93;4.70;;;32.30;56.60;;;;;;5033132;28;20493;-72
2023/04/29 12:35:36;;;;;;;12.68;5.15;;;32.10;57.00;;;;;;5033079;28;20037;-73